Terminal Aerodrome Forecast
Issued by NWS

Home | Current Version | Previous Version | Text Only | Print | Product List | Glossary On
Versions: 1 2 3 4 5 6 7 8 9 10 11 12 13 14 15
063
FTUS44 KMAF 251720
TAFFST
TAF
KFST 251720Z 2518/2618 24018G26KT P6SM BKN250
     FM252100 26022G31KT P6SM SCT250
     FM260100 25011KT P6SM FEW250
     FM260200 28011KT P6SM SCT100=

USA.gov is the U.S. government's official web portal to all federal, state and local government web resources and services.